Time;durP1;ratioP1;P1;durP2;ratioP2;P2;SDS_P1;SDS_P2;PMS_P1;PMS_P2;Temp;Humidity;BMP_temperature;BMP_pressure;BME280_temperature;BME280_humidity;BME280_pressure;Samples;Min_cycle;Max_cycle;Signal;HPM_P1;HPM_P2
2022/07/22 00:02:05;;;;;;;;;;;26.30;39.00;;;24.19;40.07;101257.53;12257416;19;20518;-87
2022/07/22 00:06:07;;;;;;;;;;;26.40;39.20;;;24.53;40.47;101311.94;12255193;19;19942;-87
2022/07/22 00:10:10;;;;;;;;;;;26.20;39.10;;;24.58;40.05;101325.63;12256529;19;19927;-87
2022/07/22 00:14:12;;;;;;;;;;;26.20;39.20;;;24.54;40.37;101319.75;12253904;19;19958;-87
2022/07/22 00:18:14;;;;;;;;;;;26.20;39.60;;;24.45;40.10;101313.56;12253614;19;19921;-87
2022/07/22 00:22:15;;;;;;;;;;;26.20;39.30;;;24.50;40.49;101313.91;12254051;19;19935;-87
2022/07/22 00:26:17;;;;;;;;;;;26.20;39.40;;;24.66;40.36;101337.19;12252976;19;19948;-87
2022/07/22 00:30:18;;;;;;;;;;;26.20;39.50;;;24.39;40.67;101286.66;12255266;19;20333;-87
2022/07/22 00:34:20;;;;;;;;;;;26.30;39.60;;;24.66;40.39;101321.16;12251568;19;19922;-87
2022/07/22 00:38:21;;;;;;;;;;;26.30;40.00;;;24.71;40.81;101331.34;12249657;19;20341;-87
2022/07/22 00:42:23;;;;;;;;;;;26.30;39.70;;;24.29;40.94;101252.91;12253438;19;19943;-87
2022/07/22 00:46:24;;;;;;;;;;;26.30;39.70;;;24.35;40.91;101269.28;12251654;19;20305;-87
2022/07/22 00:50:27;;;;;;;;;;;26.40;39.70;;;24.56;40.68;101296.41;12254534;19;19921;-89
2022/07/22 00:54:28;;;;;;;;;;;26.40;39.70;;;24.25;40.69;101243.56;12252473;19;19986;-88
2022/07/22 00:58:31;;;;;;;;;;;26.40;39.80;;;24.79;40.95;101335.88;12255809;19;19919;-88
2022/07/22 01:02:32;;;;;;;;;;;26.40;39.70;;;24.25;40.86;101256.06;12253785;19;19923;-87
2022/07/22 01:06:34;;;;;;;;;;;26.70;39.90;;;24.41;40.84;101276.63;12252361;19;19966;-88
2022/07/22 01:10:36;;;;;;;;;;;26.50;39.80;;;24.25;40.64;101250.72;12253811;19;19941;-86
2022/07/22 01:14:37;;;;;;;;;;;26.40;39.80;;;24.52;40.96;101295.06;12251804;19;19926;-88
2022/07/22 01:18:39;;;;;;;;;;;26.60;39.70;;;24.38;41.07;101283.13;12251826;19;20238;-88
2022/07/22 01:22:41;;;;;;;;;;;26.50;39.80;;;24.39;40.97;101281.31;12246990;19;19922;-87
2022/07/22 01:26:43;;;;;;;;;;;26.40;39.70;;;24.72;41.04;101331.19;12248767;19;19918;-89
2022/07/22 01:30:45;;;;;;;;;;;26.40;39.80;;;24.53;40.95;101306.59;12249269;19;20388;-87
2022/07/22 01:34:46;;;;;;;;;;;26.30;39.70;;;24.49;40.78;101312.25;12247713;19;19918;-87
2022/07/22 01:38:48;;;;;;;;;;;26.30;39.80;;;24.34;41.39;101300.47;12250492;19;19914;-88
2022/07/22 01:42:50;;;;;;;;;;;26.30;39.60;;;24.37;41.20;101310.00;12249391;19;19922;-87
2022/07/22 01:46:53;;;;;;;;;;;26.30;39.60;;;24.51;41.36;101338.78;12247445;19;19942;-87
2022/07/22 01:50:57;;;;;;;;;;;26.20;39.70;;;24.52;41.54;101345.81;12250415;19;19925;-86
2022/07/22 01:54:59;;;;;;;;;;;26.20;39.90;;;24.42;41.45;101337.06;12244833;19;20270;-88
2022/07/22 01:59:01;;;;;;;;;;;26.10;39.90;;;24.39;41.32;101332.03;12248465;19;19911;-86
2022/07/22 02:03:04;;;;;;;;;;;26.30;40.00;;;24.35;41.70;101331.50;12249036;19;20325;-87
2022/07/22 02:07:07;;;;;;;;;;;26.10;40.10;;;24.34;41.34;101329.00;12246679;19;19941;-87
2022/07/22 02:11:08;;;;;;;;;;;26.10;40.00;;;23.97;41.53;101271.44;12249173;19;19918;-87
2022/07/22 02:15:15;;;;;;;;;;;26.00;39.80;;;24.34;41.54;101334.34;12247956;19;19928;-88
2022/07/22 02:19:17;;;;;;;;;;;26.00;39.90;;;24.29;41.59;101332.97;12250301;19;19903;-87
2022/07/22 02:23:20;;;;;;;;;;;26.00;39.80;;;24.26;41.84;101340.47;12249571;19;19919;-87
2022/07/22 02:27:22;;;;;;;;;;;26.00;40.00;;;24.23;41.73;101338.13;12246712;19;19918;-87
2022/07/22 02:31:24;;;;;;;;;;;26.00;40.00;;;24.19;41.80;101347.44;12248524;19;19919;-87
2022/07/22 02:35:25;;;;;;;;;;;25.90;40.00;;;23.62;41.89;101259.88;12246928;19;19966;-88
2022/07/22 02:39:27;;;;;;;;;;;25.90;40.00;;;23.80;41.78;101303.38;12245576;19;19919;-87
2022/07/22 02:43:29;;;;;;;;;;;25.80;39.90;;;23.95;42.09;101324.13;12248791;19;19907;-86
2022/07/22 02:47:31;;;;;;;;;;;25.80;40.10;;;23.73;41.60;101291.63;12245831;19;19919;-86
2022/07/22 02:51:33;;;;;;;;;;;25.70;40.20;;;24.06;41.97;101362.06;12247555;19;19948;-87
2022/07/22 02:55:35;;;;;;;;;;;25.70;40.20;;;24.00;41.84;101356.50;12246433;19;20299;-87
2022/07/22 02:59:38;;;;;;;;;;;25.70;40.20;;;23.95;41.79;101346.31;12251108;19;19947;-87
2022/07/22 03:03:40;;;;;;;;;;;25.70;40.10;;;23.85;42.04;101340.25;12252588;19;19927;-87
2022/07/22 03:07:42;;;;;;;;;;;25.70;40.10;;;23.92;41.91;101367.13;12247441;19;19926;-87
2022/07/22 03:11:46;;;;;;;;;;;25.70;40.20;;;23.69;42.19;101348.94;12257005;19;19917;-87
2022/07/22 03:15:47;;;;;;;;;;;25.60;40.20;;;23.57;42.03;101331.50;12261115;19;19915;-86
2022/07/22 03:19:49;;;;;;;;;;;25.50;40.10;;;23.31;42.00;101294.97;12262332;19;20002;-86
2022/07/22 03:23:53;;;;;;;;;;;25.60;40.30;;;23.63;42.08;101346.91;12257770;19;19929;-87
2022/07/22 03:27:55;;;;;;;;;;;25.50;40.30;;;23.59;42.22;101351.69;12255786;19;19917;-87
2022/07/22 03:31:57;;;;;;;;;;;25.40;40.40;;;23.65;42.25;101355.56;12258864;19;19939;-87
2022/07/22 03:36:13;;;;;;;;;;;25.40;40.40;;;23.70;42.42;101374.59;12255760;19;19918;-88
2022/07/22 03:40:19;;;;;;;;;;;25.40;40.40;;;23.12;42.37;101287.97;12258824;19;19978;-87
2022/07/22 03:44:21;;;;;;;;;;;25.40;40.50;;;23.51;42.63;101342.78;12259846;19;19915;-88
2022/07/22 03:48:23;;;;;;;;;;;25.40;40.50;;;23.64;42.32;101369.88;12252780;19;20329;-86
2022/07/22 03:52:25;;;;;;;;;;;25.40;40.50;;;23.66;42.41;101373.25;12256606;19;19907;-86
2022/07/22 03:56:27;;;;;;;;;;;25.40;40.80;;;23.61;42.43;101379.03;12252803;19;19915;-87
2022/07/22 04:00:28;;;;;;;;;;;25.30;40.60;;;23.64;42.61;101376.06;12255699;19;19930;-87
2022/07/22 04:04:31;;;;;;;;;;;25.40;40.70;;;23.52;42.38;101360.44;12254830;19;19927;-87
2022/07/22 04:08:34;;;;;;;;;;;25.30;40.80;;;23.53;42.84;101372.81;12256031;19;19919;-87
2022/07/22 04:12:38;;;;;;;;;;;25.30;40.60;;;23.53;42.90;101381.63;12253823;19;20254;-87
2022/07/22 04:17:06;;;;;;;;;;;25.30;40.60;;;23.46;42.99;101371.72;12250735;19;19950;-87
2022/07/22 04:21:08;;;;;;;;;;;25.20;40.70;;;23.21;42.69;101344.84;12254069;19;19919;-86
2022/07/22 04:25:38;;;;;;;;;;;25.20;40.70;;;23.32;42.85;101373.94;12253209;19;19927;-87
2022/07/22 04:29:40;;;;;;;;;;;25.10;40.90;;;23.20;42.71;101353.84;12254898;19;19941;-87
2022/07/22 04:33:41;;;;;;;;;;;25.10;41.10;;;23.28;42.85;101361.91;12249609;19;20337;-87
2022/07/22 04:37:43;;;;;;;;;;;25.10;41.00;;;23.33;42.81;101372.09;12243523;19;19919;-86
2022/07/22 04:41:45;;;;;;;;;;;25.10;41.00;;;23.22;43.04;101359.84;12251033;19;20560;-87
2022/07/22 04:45:50;;;;;;;;;;;25.10;40.90;;;23.36;43.16;101382.50;12247486;19;19978;-86
2022/07/22 04:49:52;;;;;;;;;;;25.10;41.20;;;23.32;42.94;101376.59;12249715;19;19922;-87
2022/07/22 04:53:55;;;;;;;;;;;25.10;41.00;;;23.37;43.13;101376.97;12245340;19;19923;-87
2022/07/22 04:57:58;;;;;;;;;;;25.10;40.80;;;23.17;43.32;101347.00;12244950;19;19918;-88
2022/07/22 05:01:59;;;;;;;;;;;25.10;41.10;;;23.29;42.94;101371.56;12248032;19;19919;-86
2022/07/22 05:06:01;;;;;;;;;;;25.10;41.00;;;23.27;43.25;101373.56;12247400;19;19925;-88
2022/07/22 05:10:09;;;;;;;;;;;25.30;41.40;;;23.26;43.21;101366.56;12247953;19;19918;-87
2022/07/22 05:14:11;;;;;;;;;;;25.00;41.00;;;22.95;43.21;101305.63;12246473;19;19930;-88
2022/07/22 05:18:12;;;;;;;;;;;25.10;41.40;;;23.46;43.10;101383.22;12245772;19;19930;-88
2022/07/22 05:22:15;;;;;;;;;;;25.10;41.60;;;23.47;43.25;101376.09;12247041;19;19939;-87
2022/07/22 05:26:17;;;;;;;;;;;25.20;41.30;;;23.51;43.56;101378.28;12245540;19;19911;-88
2022/07/22 05:30:19;;;;;;;;;;;25.20;41.20;;;23.56;43.21;101389.31;12247009;19;19923;-88
2022/07/22 05:34:21;;;;;;;;;;;25.20;41.50;;;23.48;43.29;101394.56;12243079;19;20623;-87
2022/07/22 05:38:27;;;;;;;;;;;25.20;41.30;;;23.45;43.47;101389.56;12246265;19;19946;-87
2022/07/22 05:42:29;;;;;;;;;;;25.20;41.40;;;23.36;43.72;101375.31;12246847;19;20049;-88
2022/07/22 05:46:30;;;;;;;;;;;25.20;41.70;;;23.35;43.62;101370.97;12237392;19;19946;-88
2022/07/22 05:50:32;;;;;;;;;;;25.20;41.60;;;22.97;43.82;101327.63;12244444;19;19978;-87
2022/07/22 05:54:33;;;;;;;;;;;25.20;41.50;;;22.92;43.58;101315.72;12243391;19;19926;-87
2022/07/22 05:58:35;;;;;;;;;;;25.40;41.60;;;23.31;43.86;101379.44;12245640;19;20294;-87
2022/07/22 06:02:37;;;;;;;;;;;25.10;41.70;;;23.33;43.94;101378.28;12248383;19;19930;-88
2022/07/22 06:06:39;;;;;;;;;;;25.10;41.70;;;23.16;43.61;101355.13;12239361;19;19926;-89
2022/07/22 06:10:40;;;;;;;;;;;25.10;41.70;;;23.30;43.75;101394.56;12245371;19;19982;-88
2022/07/22 06:14:41;;;;;;;;;;;25.10;41.60;;;23.14;43.82;101357.97;12240600;19;19933;-90
2022/07/22 06:18:43;;;;;;;;;;;25.20;41.80;;;23.37;43.90;101390.31;12244365;19;19975;-89
2022/07/22 06:22:44;;;;;;;;;;;25.10;41.70;;;23.48;43.98;101399.91;12242592;19;20826;-89
2022/07/22 06:26:46;;;;;;;;;;;25.20;41.90;;;23.46;43.88;101393.06;12241197;19;19923;-90
2022/07/22 06:30:49;;;;;;;;;;;25.20;42.00;;;23.46;44.17;101388.56;12234697;19;19921;-87
2022/07/22 06:34:52;;;;;;;;;;;25.40;42.20;;;23.61;43.81;101408.38;12236909;19;19915;-89
2022/07/22 06:38:54;;;;;;;;;;;25.20;42.10;;;23.61;43.93;101392.38;12242163;19;19930;-88
2022/07/22 06:42:55;;;;;;;;;;;25.30;42.00;;;23.63;44.02;101387.72;12245191;19;19923;-88
2022/07/22 06:47:23;;;;;;;;;;;25.30;42.10;;;23.48;43.89;101354.59;12248550;19;19982;-87
2022/07/22 06:51:25;;;;;;;;;;;25.40;42.00;;;23.54;44.32;101353.13;12254573;19;19939;-88
2022/07/22 06:55:26;;;;;;;;;;;25.40;42.10;;;23.87;44.23;101396.09;12254118;19;19952;-89
2022/07/22 06:59:48;;;;;;;;;;;25.50;42.20;;;23.85;43.86;101389.09;12255544;19;19906;-88
2022/07/22 07:03:50;;;;;;;;;;;25.60;42.20;;;23.85;44.36;101389.09;12257642;19;19977;-88
2022/07/22 07:07:52;;;;;;;;;;;25.60;42.20;;;23.93;44.08;101384.81;12251682;19;19911;-89
2022/07/22 07:11:53;;;;;;;;;;;25.60;42.00;;;24.03;44.33;101390.88;12251904;19;19934;-88
2022/07/22 07:16:15;;;;;;;;;;;25.70;42.30;;;24.08;44.33;101388.56;12252131;19;19990;-89
2022/07/22 07:20:17;;;;;;;;;;;25.70;42.50;;;24.17;44.05;101393.00;12258700;19;19974;-88
2022/07/22 07:24:18;;;;;;;;;;;25.80;42.00;;;24.17;44.11;101376.97;12255627;19;19927;-87
2022/07/22 07:28:20;;;;;;;;;;;25.80;42.20;;;24.45;44.38;101406.19;12241517;19;20257;-88
2022/07/22 07:32:29;;;;;;;;;;;26.00;42.40;;;24.59;44.13;101402.91;12252351;19;19914;-88
2022/07/22 07:36:30;;;;;;;;;;;26.10;42.40;;;24.55;44.45;101390.88;12248908;19;19931;-87
2022/07/22 07:40:32;;;;;;;;;;;26.20;42.10;;;24.47;44.06;101366.81;12250388;19;19922;-87
2022/07/22 07:44:34;;;;;;;;;;;26.20;42.00;;;24.64;44.32;101381.91;12254957;19;19915;-88
2022/07/22 07:48:37;;;;;;;;;;;26.30;42.30;;;24.72;44.35;101378.44;12252709;19;19919;-88
2022/07/22 07:52:41;;;;;;;;;;;26.40;42.40;;;24.18;44.37;101295.91;12255173;19;19936;-88
2022/07/22 07:56:43;;;;;;;;;;;26.50;42.20;;;24.59;44.34;101341.47;12249460;19;20014;-86
2022/07/22 08:00:45;;;;;;;;;;;26.90;42.60;;;24.69;44.35;101328.00;12252830;19;19914;-87
2022/07/22 08:04:47;;;;;;;;;;;26.60;42.30;;;25.12;44.54;101377.72;12242100;19;19922;-87
2022/07/22 08:08:52;;;;;;;;;;;27.00;42.30;;;25.17;44.46;101351.34;12252229;19;19978;-87
2022/07/22 08:13:05;;;;;;;;;;;26.90;42.30;;;25.52;44.24;101378.81;12252967;19;19987;-87
2022/07/22 08:17:17;;;;;;;;;;;27.10;42.10;;;25.85;44.39;101394.88;12250317;19;19967;-87
2022/07/22 08:21:19;;;;;;;;;;;27.30;42.40;;;26.02;44.18;101409.91;12253554;19;20348;-86
2022/07/22 08:25:30;;;;;;;;;;;27.50;42.20;;;26.02;44.15;101396.50;12251889;19;19942;-86
2022/07/22 08:29:31;;;;;;;;;;;27.60;41.90;;;26.21;43.84;101415.91;12254639;19;20277;-88
2022/07/22 08:33:34;;;;;;;;;;;27.70;41.90;;;26.20;43.86;101398.16;12250597;19;20325;-87
2022/07/22 08:37:37;;;;;;;;;;;27.80;41.90;;;26.34;44.02;101412.69;12248502;19;19915;-88
2022/07/22 08:41:39;;;;;;;;;;;27.90;42.00;;;25.93;43.78;101325.28;12251103;19;20016;-86
2022/07/22 08:45:41;;;;;;;;;;;28.00;41.80;;;26.32;43.94;101380.72;12242820;19;19915;-86
2022/07/22 08:49:43;;;;;;;;;;;28.10;41.90;;;26.49;44.13;101394.88;12244679;19;19926;-87
2022/07/22 08:54:06;;;;;;;;;;;28.20;41.70;;;26.59;43.74;101419.66;12242142;19;19937;-86
2022/07/22 08:58:08;;;;;;;;;;;28.20;41.50;;;26.57;43.70;101402.94;12240322;19;19994;-86
2022/07/22 09:02:11;;;;;;;;;;;28.30;41.50;;;26.27;43.69;101367.00;12245297;19;19910;-86
2022/07/22 09:06:20;;;;;;;;;;;28.30;41.60;;;26.44;43.83;101390.06;12247427;19;19907;-86
2022/07/22 09:10:22;;;;;;;;;;;28.20;41.40;;;26.72;43.99;101415.63;12245715;19;19974;-86
2022/07/22 09:14:47;;;;;;;;;;;28.30;41.60;;;26.67;43.83;101390.16;12243422;19;19911;-86
2022/07/22 09:19:07;;;;;;;;;;;28.40;41.30;;;26.76;43.54;101392.81;12243481;19;20266;-86
2022/07/22 09:23:22;;;;;;;;;;;28.40;41.20;;;26.90;43.91;101406.31;12245787;19;19907;-87
2022/07/22 09:27:25;;;;;;;;;;;28.40;41.10;;;26.85;43.76;101392.59;12242436;19;19926;-86
2022/07/22 09:31:57;;;;;;;;;;;28.60;41.00;;;26.91;43.73;101399.09;12244907;19;19939;-86
2022/07/22 09:36:22;;;;;;;;;;;28.50;41.10;;;26.89;43.61;101382.34;12240726;19;19937;-86
2022/07/22 09:40:30;;;;;;;;;;;28.60;41.20;;;27.03;43.64;101383.44;12246607;19;19910;-86
2022/07/22 09:44:31;;;;;;;;;;;28.70;41.20;;;27.23;43.26;101397.28;12245036;19;19914;-86
2022/07/22 09:48:40;;;;;;;;;;;28.70;41.10;;;27.30;43.29;101401.75;12246535;19;19927;-86
2022/07/22 09:52:55;;;;;;;;;;;28.80;40.90;;;27.36;43.36;101398.34;12242163;19;19919;-87
2022/07/22 09:57:01;;;;;;;;;;;28.90;40.90;;;26.89;42.99;101324.22;12241842;19;19915;-86
2022/07/22 10:01:05;;;;;;;;;;;29.00;40.90;;;27.40;43.28;101414.09;12242562;19;20337;-86
2022/07/22 10:05:10;;;;;;;;;;;29.00;40.70;;;27.04;43.13;101363.69;12243104;19;19922;-86
2022/07/22 10:09:13;;;;;;;;;;;29.00;40.60;;;27.00;42.96;101352.47;12242418;19;19979;-86
2022/07/22 10:13:17;;;;;;;;;;;29.00;40.70;;;27.29;43.16;101402.75;12240524;19;19919;-86
2022/07/22 10:17:19;;;;;;;;;;;29.00;40.60;;;27.14;43.14;101385.75;12238098;19;20336;-86
2022/07/22 10:21:32;;;;;;;;;;;29.00;41.00;;;27.31;43.15;101416.00;12242432;19;19915;-86
2022/07/22 10:25:56;;;;;;;;;;;29.00;40.50;;;27.07;43.13;101390.13;12241248;19;19939;-86
2022/07/22 10:29:59;;;;;;;;;;;29.00;40.50;;;27.18;42.91;101423.78;12241717;19;20344;-86
2022/07/22 10:34:01;;;;;;;;;;;28.90;40.40;;;27.07;43.28;101422.31;12240878;19;19918;-86
2022/07/22 10:38:05;;;;;;;;;;;28.80;40.50;;;26.96;43.33;101414.66;12235817;19;20262;-86
2022/07/22 10:42:07;;;;;;;;;;;28.80;40.50;;;26.95;43.10;101432.59;12241543;19;20333;-86
2022/07/22 10:46:09;;;;;;;;;;;28.70;40.70;;;26.65;43.01;101384.16;12232622;19;19933;-86
2022/07/22 10:50:35;;;;;;;;;;;28.70;40.70;;;26.91;43.16;101431.28;12237831;19;19943;-86
2022/07/22 10:55:14;;;;;;;;;;;28.60;40.80;;;26.93;43.03;101437.28;12234757;19;20118;-86
2022/07/22 10:59:19;;;;;;;;;;;28.60;40.90;;;26.88;43.35;101424.41;12244592;19;19915;-86
2022/07/22 11:03:25;;;;;;;;;;;28.60;40.80;;;26.86;43.25;101413.03;12238859;19;19914;-86
2022/07/22 11:07:29;;;;;;;;;;;28.60;40.90;;;27.00;43.29;101421.34;12235237;19;19940;-86
2022/07/22 11:11:41;;;;;;;;;;;28.60;40.90;;;27.15;43.22;101435.66;12238609;19;19918;-86
2022/07/22 11:15:43;;;;;;;;;;;28.70;41.10;;;27.27;42.83;101428.91;12238283;19;20252;-86
2022/07/22 11:19:45;;;;;;;;;;;28.70;41.00;;;27.34;43.44;101412.94;12239627;19;20305;-86
2022/07/22 11:23:48;;;;;;;;;;;28.80;41.10;;;27.45;43.43;101404.50;12237332;19;20329;-86
2022/07/22 11:27:52;;;;;;;;;;;29.10;41.10;;;27.45;42.95;101385.72;12236014;19;19958;-86
2022/07/22 11:31:55;;;;;;;;;;;29.00;41.00;;;27.64;42.89;101400.47;12275032;19;19922;-86
2022/07/22 11:36:15;;;;;;;;;;;;;;;;;;;;;
2022/07/22 11:40:18;;;;;;;;;;;29.20;40.90;;;27.87;42.92;101402.31;12257183;19;19919;-87
2022/07/22 11:44:21;;;;;;;;;;;29.30;40.90;;;27.92;42.94;101400.78;12249876;19;20925;-86
2022/07/22 11:48:22;;;;;;;;;;;29.40;40.70;;;27.94;42.81;101395.22;12243852;19;19925;-86
2022/07/22 11:52:24;;;;;;;;;;;29.50;40.70;;;27.91;42.70;101393.72;12257044;19;19914;-87
2022/07/22 11:56:26;;;;;;;;;;;29.90;40.90;;;27.34;42.66;101303.81;12251810;19;20400;-86
2022/07/22 12:00:27;;;;;;;;;;;29.60;40.50;;;27.67;42.42;101356.34;12256072;19;19929;-86
2022/07/22 12:04:30;;;;;;;;;;;29.60;40.50;;;27.56;42.77;101361.13;12251514;19;19919;-86
2022/07/22 12:08:32;;;;;;;;;;;29.50;40.30;;;27.39;42.92;101346.19;12250939;19;19919;-86
2022/07/22 12:12:41;;;;;;;;;;;29.50;40.30;;;27.49;42.83;101384.34;12256331;19;19923;-87
2022/07/22 12:16:52;;;;;;;;;;;29.40;40.30;;;27.35;42.74;101363.66;12254672;19;19915;-86
2022/07/22 12:20:55;;;;;;;;;;;29.30;40.40;;;27.31;42.50;101365.03;12254989;19;19997;-87
2022/07/22 12:25:02;;;;;;;;;;;29.30;40.40;;;27.13;42.54;101352.72;12255451;19;19931;-87
2022/07/22 12:29:26;;;;;;;;;;;29.20;40.50;;;27.51;42.80;101410.97;12252452;19;19928;-86
2022/07/22 12:33:27;;;;;;;;;;;29.20;40.80;;;27.25;43.04;101361.22;12250860;19;19915;-86
2022/07/22 12:37:43;;;;;;;;;;;29.10;40.70;;;27.33;42.52;101369.22;12244369;19;20392;-86
2022/07/22 12:41:50;;;;;;;;;;;29.40;40.80;;;27.49;42.77;101399.59;12251756;19;19942;-87
2022/07/22 12:45:52;;;;;;;;;;;29.10;40.70;;;27.48;42.74;101401.44;12235077;19;19940;-86
2022/07/22 12:49:53;;;;;;;;;;;29.10;40.60;;;27.47;42.94;101396.28;12237303;19;19923;-88
2022/07/22 12:53:55;;;;;;;;;;;29.00;40.70;;;27.47;42.84;101396.28;12232611;19;20418;-89
2022/07/22 12:57:56;;;;;;;;;;;29.10;40.70;;;27.59;42.77;101401.00;12233987;19;19925;-88
2022/07/22 13:01:57;;;;;;;;;;;29.10;40.80;;;27.66;42.77;101381.53;12242204;19;19914;-89
2022/07/22 13:06:01;;;;;;;;;;;29.10;40.70;;;27.69;42.79;101387.34;12238963;19;19926;-89
2022/07/22 13:10:03;;;;;;;;;;;29.20;40.80;;;27.70;42.66;101377.44;12241846;19;19911;-89
2022/07/22 13:14:04;;;;;;;;;;;29.30;40.80;;;27.61;42.65;101371.31;12238332;19;19931;-88
2022/07/22 13:18:06;;;;;;;;;;;29.30;40.60;;;27.74;42.72;101392.19;12238160;19;19918;-90
2022/07/22 13:22:07;;;;;;;;;;;29.30;40.50;;;27.80;42.90;101402.22;12241669;19;19915;-91
2022/07/22 13:26:08;;;;;;;;;;;29.40;40.80;;;27.87;42.83;101394.25;12236649;19;19944;-89
2022/07/22 13:30:10;;;;;;;;;;;29.40;40.90;;;27.87;42.63;101386.22;12241500;19;20339;-89
2022/07/22 13:34:12;;;;;;;;;;;29.40;40.80;;;28.05;42.41;101400.13;12239180;19;19914;-89
2022/07/22 13:38:16;;;;;;;;;;;29.50;40.90;;;28.08;42.85;101394.41;12238851;19;19926;-89
2022/07/22 13:42:18;;;;;;;;;;;29.60;40.80;;;27.86;42.87;101346.97;12241519;19;19914;-91
2022/07/22 13:46:21;;;;;;;;;;;29.60;40.70;;;28.15;42.56;101397.19;12237752;19;19934;-91
2022/07/22 13:50:23;;;;;;;;;;;29.70;40.70;;;27.94;42.70;101379.09;12228833;19;20498;-90
2022/07/22 13:54:24;;;;;;;;;;;29.70;40.60;;;28.05;42.67;101394.75;12235574;19;20003;-90
2022/07/22 13:58:26;;;;;;;;;;;29.70;40.70;;;27.67;42.75;101332.19;12221757;19;19923;-90
2022/07/22 14:02:28;;;;;;;;;;;29.60;40.60;;;27.57;42.76;101305.59;12224713;19;19918;-90
2022/07/22 14:06:29;;;;;;;;;;;29.90;40.70;;;27.84;42.75;101343.63;12232674;19;19923;-90
2022/07/22 14:10:30;;;;;;;;;;;29.60;40.60;;;28.13;42.66;101381.25;12238258;19;20328;-90
2022/07/22 14:14:31;;;;;;;;;;;29.70;40.70;;;27.83;42.47;101321.31;12237614;19;19929;-90
2022/07/22 14:18:36;;;;;;;;;;;29.80;40.60;;;28.07;42.66;101343.56;12232079;19;23045;-90
2022/07/22 14:22:38;;;;;;;;;;;29.80;40.70;;;28.36;42.62;101385.72;12238841;19;20300;-89
2022/07/22 14:26:40;;;;;;;;;;;29.90;40.60;;;28.17;42.42;101341.44;12235898;19;20029;-89
2022/07/22 14:30:41;;;;;;;;;;;30.20;40.60;;;28.52;42.11;101379.34;12236551;19;20280;-88
2022/07/22 14:34:43;;;;;;;;;;;30.00;40.50;;;28.54;42.36;101393.41;12230777;19;20358;-89
2022/07/22 14:38:44;;;;;;;;;;;30.10;40.40;;;28.29;42.28;101361.44;12234349;19;19925;-90
2022/07/22 14:42:46;;;;;;;;;;;30.20;40.30;;;27.91;42.30;101325.78;12237201;19;19915;-89
2022/07/22 14:46:47;;;;;;;;;;;30.10;40.20;;;27.62;42.37;101291.66;12232148;19;20570;-88
2022/07/22 14:50:49;;;;;;;;;;;30.00;40.10;;;27.70;42.40;101323.78;12238816;19;19930;-90
2022/07/22 14:54:50;;;;;;;;;;;30.00;40.10;;;27.65;42.63;101329.69;12229016;19;19956;-89
2022/07/22 14:58:52;;;;;;;;;;;29.80;40.00;;;27.82;42.40;101346.50;12238771;19;19975;-89
2022/07/22 15:02:54;;;;;;;;;;;29.90;40.20;;;27.74;42.11;101323.22;12239932;19;19947;-88
2022/07/22 15:06:55;;;;;;;;;;;29.70;40.10;;;27.75;42.33;101329.44;12241062;19;20301;-89
2022/07/22 15:10:59;;;;;;;;;;;29.70;40.00;;;27.77;42.30;101338.97;12248612;19;19946;-89
2022/07/22 15:15:00;;;;;;;;;;;29.70;40.00;;;28.21;42.28;101383.84;12247072;19;19971;-90
2022/07/22 15:19:02;;;;;;;;;;;29.70;40.00;;;28.13;42.44;101362.44;12251789;19;19927;-89
2022/07/22 15:23:04;;;;;;;;;;;30.10;40.60;;;28.32;42.37;101385.25;12247946;19;19972;-91
2022/07/22 15:27:05;;;;;;;;;;;29.80;40.00;;;28.07;42.32;101339.03;12248740;19;19978;-89
2022/07/22 15:31:07;;;;;;;;;;;29.90;40.00;;;28.14;42.13;101350.72;12249358;19;20270;-89
2022/07/22 15:35:08;;;;;;;;;;;29.90;39.90;;;28.37;41.99;101384.69;12241659;19;19926;-92
2022/07/22 15:39:09;;;;;;;;;;;29.90;39.80;;;27.72;41.80;101257.34;12252055;19;19911;-89
2022/07/22 15:43:11;;;;;;;;;;;29.90;40.30;;;28.44;42.16;101370.34;12251010;19;20301;-91
2022/07/22 15:47:13;;;;;;;;;;;29.90;39.80;;;28.15;41.86;101309.38;12250425;19;19954;-90
2022/07/22 15:51:15;;;;;;;;;;;29.90;39.70;;;28.25;41.65;101325.22;12251188;19;19919;-89
2022/07/22 15:55:17;;;;;;;;;;;30.00;39.70;;;28.27;41.85;101331.22;12248746;19;19915;-87
2022/07/22 15:59:33;;;;;;;;;;;30.00;39.60;;;28.14;41.94;101310.41;12252862;19;19953;-88
2022/07/22 16:03:35;;;;;;;;;;;29.90;39.50;;;28.17;41.96;101312.72;12252791;19;19929;-87
2022/07/22 16:07:36;;;;;;;;;;;29.90;39.50;;;27.89;41.98;101260.69;12253953;19;19921;-87
2022/07/22 16:11:38;;;;;;;;;;;30.00;39.70;;;28.32;42.02;101325.31;12254164;19;19923;-86
2022/07/22 16:15:39;;;;;;;;;;;29.90;39.50;;;27.93;41.86;101251.25;12254279;19;20266;-87
2022/07/22 16:19:40;;;;;;;;;;;29.90;39.50;;;28.45;42.07;101336.25;12255132;19;20254;-86
2022/07/22 16:23:42;;;;;;;;;;;30.00;39.50;;;28.22;41.70;101304.94;12251076;19;19998;-87
2022/07/22 16:27:43;;;;;;;;;;;30.00;39.40;;;27.94;41.97;101271.72;12245792;19;19923;-86
2022/07/22 16:31:46;;;;;;;;;;;29.90;39.30;;;27.90;41.31;101267.75;12249644;19;19918;-88
2022/07/22 16:35:47;;;;;;;;;;;29.90;39.40;;;28.09;42.01;101304.78;12247060;19;19934;-86
2022/07/22 16:39:53;;;;;;;;;;;29.90;39.30;;;28.19;41.75;101329.50;12247563;19;19923;-87
2022/07/22 16:43:55;;;;;;;;;;;29.90;39.30;;;28.13;41.67;101321.34;12249538;19;19925;-88
2022/07/22 16:47:57;;;;;;;;;;;29.80;39.40;;;28.09;41.65;101315.50;12246331;19;19931;-86
2022/07/22 16:51:59;;;;;;;;;;;29.80;39.40;;;27.67;41.63;101259.72;12239976;19;21024;-87
2022/07/22 16:56:00;;;;;;;;;;;30.00;39.50;;;27.55;41.75;101254.81;12237262;19;19922;-87
2022/07/22 17:00:04;;;;;;;;;;;29.80;39.30;;;27.98;41.89;101326.72;12249471;19;20443;-87
2022/07/22 17:04:05;;;;;;;;;;;29.70;39.30;;;27.97;42.10;101322.34;12244831;19;19922;-88
2022/07/22 17:08:07;;;;;;;;;;;29.60;39.20;;;27.88;41.63;101328.84;12244134;19;19962;-89
2022/07/22 17:12:08;;;;;;;;;;;29.80;39.30;;;27.87;41.41;101322.63;12248805;19;19923;-86
2022/07/22 17:16:10;;;;;;;;;;;29.60;39.30;;;27.84;41.88;101327.53;12246421;19;20412;-86
2022/07/22 17:20:13;;;;;;;;;;;29.60;39.30;;;27.55;41.85;101287.03;12243743;19;20439;-86
2022/07/22 17:24:14;;;;;;;;;;;29.40;39.20;;;27.54;41.42;101287.19;12245528;19;19931;-87
2022/07/22 17:28:16;;;;;;;;;;;29.40;39.20;;;27.64;41.81;101314.59;12242970;19;19930;-88
2022/07/22 17:32:17;;;;;;;;;;;29.30;39.20;;;27.12;41.81;101238.44;12248852;19;19931;-88
2022/07/22 17:36:18;;;;;;;;;;;29.30;39.20;;;27.18;41.58;101257.53;12250491;19;19957;-86
2022/07/22 17:40:20;;;;;;;;;;;29.20;39.30;;;27.27;41.65;101276.03;12252134;19;19990;-88
2022/07/22 17:44:22;;;;;;;;;;;29.10;39.30;;;27.04;41.76;101251.91;12252280;19;19926;-87
2022/07/22 17:48:24;;;;;;;;;;;29.10;39.30;;;27.15;41.47;101280.13;12243768;19;20278;-86
2022/07/22 17:52:25;;;;;;;;;;;29.10;39.30;;;26.92;41.80;101243.47;12245173;19;19915;-86
2022/07/22 17:56:26;;;;;;;;;;;29.10;39.30;;;27.38;41.32;101322.22;12242649;19;19915;-88
2022/07/22 18:00:30;;;;;;;;;;;29.00;39.30;;;27.21;41.65;101305.44;12243691;19;19930;-87
2022/07/22 18:04:31;;;;;;;;;;;29.00;39.30;;;26.86;41.76;101262.91;12244901;19;19952;-89
2022/07/22 18:08:33;;;;;;;;;;;28.90;39.20;;;26.81;41.50;101262.63;12245842;19;20490;-88
2022/07/22 18:12:34;;;;;;;;;;;28.80;39.20;;;27.12;41.77;101313.50;12243684;19;19927;-87
2022/07/22 18:16:35;;;;;;;;;;;28.80;39.30;;;27.04;41.54;101304.69;12242662;19;19915;-87